createdAt,value
2019-02-22T00:01:15.288Z,102184.89
2019-02-22T00:03:42.198Z,102190.13
2019-02-22T00:06:09.080Z,102194.89
2019-02-22T00:08:35.961Z,102197.48
2019-02-22T00:11:02.872Z,102189.66
2019-02-22T00:13:29.736Z,102196.19
2019-02-22T00:15:56.652Z,102197.94
2019-02-22T00:18:23.528Z,102197.96
2019-02-22T00:20:50.456Z,102204.05
2019-02-22T00:23:17.315Z,102205.30
2019-02-22T00:25:44.259Z,102210.98
2019-02-22T00:28:11.139Z,102210.99
2019-02-22T00:30:38.066Z,102209.66
2019-02-22T00:33:04.996Z,102215.38
2019-02-22T00:35:32.069Z,102221.02
2019-02-22T00:37:59.346Z,102227.55
2019-02-22T00:40:26.277Z,102230.16
2019-02-22T00:42:53.165Z,102228.44
2019-02-22T00:45:20.098Z,102224.94
2019-02-22T00:47:46.974Z,102226.67
2019-02-22T00:50:13.891Z,102236.25
2019-02-22T00:52:40.775Z,102241.01
2019-02-22T00:55:07.733Z,102233.21
2019-02-22T00:57:34.609Z,102241.03
2019-02-22T01:00:01.559Z,102247.11
2019-02-22T01:02:28.455Z,102249.80
2019-02-22T01:04:55.462Z,102248.43
2019-02-22T01:07:23.202Z,102243.62
2019-02-22T01:09:50.141Z,102245.79
2019-02-22T01:12:17.024Z,102249.69
2019-02-22T01:14:43.974Z,102251.45
2019-02-22T01:17:10.853Z,102259.27
2019-02-22T01:19:37.754Z,102262.31
2019-02-22T01:22:05.101Z,102258.83
2019-02-22T01:24:31.988Z,102256.28
2019-02-22T01:26:58.927Z,102259.69
2019-02-22T01:29:25.921Z,102265.79
2019-02-22T01:31:52.858Z,102271.42
2019-02-22T01:34:19.744Z,102279.70
2019-02-22T01:36:46.686Z,102285.83
2019-02-22T01:39:13.590Z,102286.73
2019-02-22T01:41:40.506Z,102284.09
2019-02-22T01:44:17.828Z,102301.52
2019-02-22T01:46:44.790Z,102305.41
2019-02-22T01:49:11.658Z,102303.22
2019-02-22T01:51:38.603Z,102303.70
2019-02-22T01:54:05.614Z,102306.29
2019-02-22T01:56:32.542Z,102310.67
2019-02-22T01:58:59.439Z,102305.83
2019-02-22T02:01:26.342Z,102308.92
2019-02-22T02:03:53.224Z,102300.64
2019-02-22T02:06:20.168Z,102305.02
2019-02-22T02:08:47.049Z,102315.45
2019-02-22T02:11:13.969Z,102319.37
2019-02-22T02:13:40.863Z,102314.56
2019-02-22T02:16:07.784Z,102314.11
2019-02-22T02:18:34.691Z,102306.27
2019-02-22T02:21:01.570Z,102301.45
2019-02-22T02:23:28.489Z,102301.44
2019-02-22T02:25:55.391Z,102311.09
2019-02-22T02:28:22.305Z,102318.49
2019-02-22T02:30:49.207Z,102321.06
2019-02-22T02:33:16.134Z,102319.37
2019-02-22T02:35:43.019Z,102315.84
2019-02-22T02:38:09.916Z,102321.08
2019-02-22T02:40:36.822Z,102318.87
2019-02-22T02:43:03.786Z,102322.89
2019-02-22T02:45:30.685Z,102335.00
2019-02-22T02:47:57.579Z,102330.27
2019-02-22T02:50:24.442Z,102322.84
2019-02-22T02:52:51.353Z,102326.29
2019-02-22T02:55:29.178Z,102325.47
2019-02-22T02:57:56.135Z,102344.14
2019-02-22T03:00:23.012Z,102348.42
2019-02-22T03:02:49.920Z,102340.66
2019-02-22T03:05:16.796Z,102343.67
2019-02-22T03:07:45.366Z,102352.75
2019-02-22T03:10:12.260Z,102353.26
2019-02-22T03:12:39.172Z,102362.36
2019-02-22T03:15:07.225Z,102361.50
2019-02-22T03:17:34.244Z,102367.58
2019-02-22T03:20:01.148Z,102371.55
2019-02-22T03:22:28.051Z,102368.91
2019-02-22T03:24:54.950Z,102370.23
2019-02-22T03:27:21.871Z,102369.38
2019-02-22T03:29:48.748Z,102369.80
2019-02-22T03:32:15.664Z,102363.69
2019-02-22T03:34:42.576Z,102365.86
2019-02-22T03:37:09.519Z,102369.76
2019-02-22T03:39:36.413Z,102367.59
2019-02-22T03:42:03.312Z,102375.84
2019-02-22T03:44:30.246Z,102370.59
2019-02-22T03:46:57.124Z,102383.70
2019-02-22T03:49:24.051Z,102389.72
2019-02-22T03:51:50.933Z,102393.62
2019-02-22T03:54:17.867Z,102390.62
2019-02-22T03:56:44.807Z,102399.33
2019-02-22T03:59:11.759Z,102408.52
2019-02-22T04:01:38.690Z,102404.53
2019-02-22T04:04:05.638Z,102405.42
2019-02-22T04:06:32.564Z,102406.34
2019-02-22T04:08:59.526Z,102420.67
2019-02-22T04:11:26.457Z,102406.70
2019-02-22T04:13:53.417Z,102395.34
2019-02-22T04:16:20.344Z,102410.64
2019-02-22T04:18:47.327Z,102408.84
2019-02-22T04:21:14.218Z,102417.11
2019-02-22T04:23:41.162Z,102412.80
2019-02-22T04:26:08.073Z,102413.28
2019-02-22T04:28:35.015Z,102411.45
2019-02-22T04:31:01.921Z,102418.91
2019-02-22T04:33:28.852Z,102421.98
2019-02-22T04:35:55.750Z,102414.48
2019-02-22T04:38:22.680Z,102425.05
2019-02-22T04:40:49.592Z,102426.25
2019-02-22T04:43:16.539Z,102432.34
2019-02-22T04:45:43.507Z,102435.83
2019-02-22T04:48:10.469Z,102439.72
2019-02-22T04:50:37.387Z,102443.17
2019-02-22T04:53:04.421Z,102444.10
2019-02-22T04:55:31.375Z,102453.67
2019-02-22T04:57:58.295Z,102450.66
2019-02-22T05:00:25.239Z,102458.57
2019-02-22T05:02:52.157Z,102457.20
2019-02-22T05:05:19.099Z,102467.68
2019-02-22T05:07:46.094Z,102466.75
2019-02-22T05:10:13.032Z,102464.98
2019-02-22T05:12:39.949Z,102463.59
2019-02-22T05:15:12.594Z,102468.55
2019-02-22T05:17:35.905Z,102477.23
2019-02-22T05:20:03.317Z,102482.89
2019-02-22T05:22:30.223Z,102473.72
2019-02-22T05:24:57.192Z,102475.42
2019-02-22T05:27:24.136Z,102486.34
2019-02-22T05:29:51.083Z,102486.28
2019-02-22T05:32:18.036Z,102483.26
2019-02-22T05:34:44.971Z,102486.80
2019-02-22T05:37:11.879Z,102485.50
2019-02-22T05:39:38.821Z,102489.79
2019-02-22T05:42:05.728Z,102487.67
2019-02-22T05:44:32.675Z,102491.97
2019-02-22T05:47:00.605Z,102496.81
2019-02-22T05:49:27.811Z,102503.62
2019-02-22T05:51:54.729Z,102500.55
2019-02-22T05:54:21.669Z,102492.64
2019-02-22T05:56:48.613Z,102504.52
2019-02-22T05:59:15.555Z,102498.03
2019-02-22T06:01:42.483Z,102498.03
2019-02-22T06:04:09.413Z,102508.34
2019-02-22T06:06:36.329Z,102504.48
2019-02-22T06:09:04.468Z,102503.62
2019-02-22T06:11:31.414Z,102506.73
2019-02-22T06:13:58.318Z,102509.41
2019-02-22T06:16:25.261Z,102512.72
2019-02-22T06:18:52.230Z,102515.30
2019-02-22T06:21:19.176Z,102510.64
2019-02-22T06:23:46.109Z,102523.12
2019-02-22T06:26:13.040Z,102533.20
2019-02-22T06:28:39.958Z,102524.07
2019-02-22T06:31:06.907Z,102531.06
2019-02-22T06:33:33.832Z,102532.77
2019-02-22T06:36:00.795Z,102502.98
2019-02-22T06:38:28.212Z,102539.83
2019-02-22T06:40:55.214Z,102541.98
2019-02-22T06:43:22.137Z,102547.16
2019-02-22T06:45:49.074Z,102557.09
2019-02-22T06:48:15.995Z,102558.77
2019-02-22T06:50:43.094Z,102558.84
2019-02-22T06:53:11.211Z,102557.09
2019-02-22T06:55:38.160Z,102557.57
2019-02-22T06:58:05.066Z,102558.00
2019-02-22T07:00:31.996Z,102563.27
2019-02-22T07:02:59.002Z,102560.58
2019-02-22T07:05:25.959Z,102558.80
2019-02-22T07:07:52.882Z,102566.27
2019-02-22T07:10:19.841Z,102577.08
2019-02-22T07:12:59.879Z,102581.50
2019-02-22T07:15:26.819Z,102580.67
2019-02-22T07:17:53.729Z,102592.92
2019-02-22T07:20:20.709Z,102597.42
2019-02-22T07:22:47.631Z,102602.02
2019-02-22T07:25:14.633Z,102609.61
2019-02-22T07:27:41.542Z,102610.00
2019-02-22T07:30:08.868Z,102609.53
2019-02-22T07:32:35.861Z,102610.30
2019-02-22T07:35:02.897Z,102618.70
2019-02-22T07:37:29.975Z,102613.89
2019-02-22T07:39:56.905Z,102613.19
2019-02-22T07:42:23.846Z,102624.47
2019-02-22T07:44:50.789Z,102623.70
2019-02-22T07:47:17.758Z,102635.79
2019-02-22T07:49:44.684Z,102642.72
2019-02-22T07:52:11.632Z,102638.98
2019-02-22T07:54:38.531Z,102643.66
2019-02-22T07:57:05.474Z,102651.90
2019-02-22T07:59:32.382Z,102658.53
2019-02-22T08:01:59.366Z,102664.52
2019-02-22T08:04:26.283Z,102664.56
2019-02-22T08:06:53.243Z,102665.03
2019-02-22T08:09:20.150Z,102667.17
2019-02-22T08:11:47.909Z,102674.86
2019-02-22T08:14:15.158Z,102690.97
2019-02-22T08:16:42.123Z,102690.06
2019-02-22T08:19:11.343Z,102699.20
2019-02-22T08:21:38.421Z,102703.93
2019-02-22T08:24:05.363Z,102701.68
2019-02-22T08:26:32.317Z,102693.44
2019-02-22T08:28:59.405Z,102707.52
2019-02-22T08:31:26.371Z,102707.52
2019-02-22T08:33:53.284Z,102719.75
2019-02-22T08:36:20.323Z,102715.50
2019-02-22T08:38:47.248Z,102719.12
2019-02-22T08:41:14.179Z,102726.39
2019-02-22T08:43:41.176Z,102725.95
2019-02-22T08:46:08.117Z,102722.80
2019-02-22T08:48:35.065Z,102736.41
2019-02-22T08:51:02.009Z,102734.20
2019-02-22T08:53:28.943Z,102736.04
2019-02-22T08:55:55.860Z,102743.84
2019-02-22T08:58:22.816Z,102738.28
2019-02-22T09:00:49.726Z,102749.18
2019-02-22T09:03:16.668Z,102754.38
2019-02-22T09:05:43.583Z,102761.55
2019-02-22T09:08:10.525Z,102757.93
2019-02-22T09:10:37.473Z,102765.73
2019-02-22T09:13:04.424Z,102764.83
2019-02-22T09:15:31.330Z,102773.14
2019-02-22T09:17:58.308Z,102771.84
2019-02-22T09:20:25.310Z,102776.30
2019-02-22T09:22:52.238Z,102786.29
2019-02-22T09:25:19.173Z,102785.85
2019-02-22T09:27:46.135Z,102789.00
2019-02-22T09:30:14.866Z,102787.20
2019-02-22T09:32:41.866Z,102789.00
2019-02-22T09:35:09.196Z,102797.69
2019-02-22T09:37:36.269Z,102792.13
2019-02-22T09:40:03.804Z,102804.02
2019-02-22T09:42:30.907Z,102809.34
2019-02-22T09:44:57.845Z,102813.42
2019-02-22T09:47:24.775Z,102808.56
2019-02-22T09:49:51.687Z,102815.52
2019-02-22T09:52:18.640Z,102821.28
2019-02-22T09:54:45.586Z,102817.23
2019-02-22T09:57:12.623Z,102741.27
2019-02-22T09:59:39.533Z,102821.55
2019-02-22T10:02:06.509Z,102825.45
2019-02-22T10:04:33.455Z,102830.11
2019-02-22T10:07:00.406Z,102831.83
2019-02-22T10:09:27.381Z,102824.31
2019-02-22T10:11:54.300Z,102831.69
2019-02-22T10:14:21.319Z,102833.03
2019-02-22T10:16:48.187Z,102831.96
2019-02-22T10:19:15.132Z,102834.11
2019-02-22T10:21:42.058Z,102834.94
2019-02-22T10:24:09.031Z,102835.31
2019-02-22T10:26:35.995Z,102835.31
2019-02-22T10:29:02.949Z,102837.92
2019-02-22T10:31:29.876Z,102836.12
2019-02-22T10:33:56.858Z,102840.11
2019-02-22T10:36:23.834Z,102835.88
2019-02-22T10:38:50.805Z,102840.68
2019-02-22T10:41:17.745Z,102838.88
2019-02-22T10:43:44.721Z,102840.75
2019-02-22T10:46:11.639Z,102844.70
2019-02-22T10:48:38.586Z,102850.34
2019-02-22T10:51:05.509Z,102858.66
2019-02-22T10:53:32.439Z,102860.80
2019-02-22T10:55:59.351Z,102847.28
2019-02-22T10:58:26.292Z,102858.59
2019-02-22T11:00:53.217Z,102857.48
2019-02-22T11:03:20.209Z,102856.07
2019-02-22T11:05:47.121Z,102860.09
2019-02-22T11:08:14.275Z,102870.44
2019-02-22T11:10:41.268Z,102876.47
2019-02-22T11:13:08.234Z,102877.23
2019-02-22T11:15:35.311Z,102874.76
2019-02-22T11:18:02.227Z,102869.93
2019-02-22T11:20:29.234Z,102883.14
2019-02-22T11:22:56.137Z,102883.88
2019-02-22T11:25:23.155Z,102883.48
2019-02-22T11:27:50.067Z,102884.42
2019-02-22T11:30:17.023Z,102889.55
2019-02-22T11:32:43.931Z,102888.64
2019-02-22T11:35:10.922Z,102884.21
2019-02-22T11:37:37.893Z,102882.97
2019-02-22T11:40:04.988Z,102882.80
2019-02-22T11:42:31.907Z,102881.89
2019-02-22T11:44:58.852Z,102891.11
2019-02-22T11:47:25.788Z,102888.20
2019-02-22T11:49:52.743Z,102886.94
2019-02-22T11:52:19.651Z,102898.16
2019-02-22T11:54:46.625Z,102896.78
2019-02-22T11:57:13.714Z,102904.47
2019-02-22T11:59:40.681Z,102897.81
2019-02-22T12:02:07.703Z,102906.05
2019-02-22T12:04:34.784Z,102903.00
2019-02-22T12:07:01.694Z,102900.78
2019-02-22T12:09:28.679Z,102903.43
2019-02-22T12:11:55.587Z,102905.73
2019-02-22T12:14:22.555Z,102906.56
2019-02-22T12:16:49.500Z,102906.92
2019-02-22T12:19:16.483Z,102906.56
2019-02-22T12:21:43.400Z,102909.97
2019-02-22T12:24:10.340Z,102919.86
2019-02-22T12:26:37.291Z,102922.91
2019-02-22T12:29:04.240Z,102921.95
2019-02-22T12:31:31.181Z,102928.97
2019-02-22T12:33:58.143Z,102926.05
2019-02-22T12:36:25.083Z,102927.41
2019-02-22T12:38:52.001Z,102936.47
2019-02-22T12:41:18.947Z,102934.28
2019-02-22T12:43:45.861Z,102934.33
2019-02-22T12:46:12.836Z,102937.94
2019-02-22T12:48:39.755Z,102931.80
2019-02-22T12:51:06.776Z,102901.08
2019-02-22T12:53:33.734Z,102935.50
2019-02-22T12:56:00.704Z,102942.55
2019-02-22T12:58:27.645Z,102939.86
2019-02-22T13:00:54.598Z,102938.20
2019-02-22T13:03:21.521Z,102932.05
2019-02-22T13:05:48.490Z,102935.66
2019-02-22T13:08:15.416Z,102936.28
2019-02-22T13:10:42.379Z,102941.08
2019-02-22T13:13:09.306Z,102937.55
2019-02-22T13:15:36.302Z,102938.86
2019-02-22T13:18:03.265Z,102938.36
2019-02-22T13:20:30.380Z,102944.50
2019-02-22T13:22:57.295Z,102944.56
2019-02-22T13:25:24.276Z,102947.19
2019-02-22T13:27:51.198Z,102948.13
2019-02-22T13:30:18.121Z,102954.20
2019-02-22T13:32:45.077Z,102951.11
2019-02-22T13:35:12.007Z,102946.56
2019-02-22T13:37:38.946Z,102945.25
2019-02-22T13:40:07.496Z,102948.78
2019-02-22T13:42:34.582Z,102956.70
2019-02-22T13:45:01.492Z,102956.86
2019-02-22T13:47:28.436Z,102949.28
2019-02-22T13:49:55.347Z,102950.22
2019-02-22T13:52:22.313Z,102955.92
2019-02-22T13:54:49.213Z,102957.30
2019-02-22T13:57:16.168Z,102955.14
2019-02-22T13:59:43.091Z,102963.38
2019-02-22T14:02:10.037Z,102963.88
2019-02-22T14:04:36.952Z,102967.03
2019-02-22T14:07:03.895Z,102975.84
2019-02-22T14:09:30.805Z,102970.95
2019-02-22T14:11:57.848Z,102973.98
2019-02-22T14:14:24.748Z,102975.69
2019-02-22T14:16:51.706Z,102977.06
2019-02-22T14:19:18.710Z,102981.14
2019-02-22T14:21:45.686Z,102977.97
2019-02-22T14:24:12.561Z,102987.07
2019-02-22T14:26:39.529Z,102977.21
2019-02-22T14:29:06.472Z,102983.70
2019-02-22T14:31:33.426Z,102978.41
2019-02-22T14:34:00.331Z,102971.07
2019-02-22T14:36:29.079Z,102966.23
2019-02-22T14:38:56.254Z,102965.42
2019-02-22T14:41:23.190Z,102972.52
2019-02-22T14:43:50.146Z,102968.97
2019-02-22T14:46:25.560Z,102969.45
2019-02-22T14:48:45.907Z,102968.55
2019-02-22T14:51:15.117Z,102964.66
2019-02-22T14:53:41.668Z,102968.83
2019-02-22T14:56:08.582Z,102968.86
2019-02-22T14:58:35.531Z,102970.11
2019-02-22T15:01:02.456Z,102972.84
2019-02-22T15:03:29.380Z,102976.22
2019-02-22T15:05:56.357Z,102978.98
2019-02-22T15:08:23.305Z,102982.77
2019-02-22T15:10:50.279Z,102980.15
2019-02-22T15:13:17.232Z,102975.37
2019-02-22T15:16:08.215Z,102979.31
2019-02-22T15:18:35.153Z,102980.90
2019-02-22T15:21:02.183Z,102977.41
2019-02-22T15:23:29.143Z,102980.53
2019-02-22T15:25:56.116Z,102977.44
2019-02-22T15:28:23.067Z,102981.20
2019-02-22T15:30:50.008Z,102991.31
2019-02-22T15:33:16.937Z,102998.29
2019-02-22T15:35:43.858Z,102990.47
2019-02-22T15:38:10.792Z,102986.00
2019-02-22T15:40:39.376Z,102988.22
2019-02-22T15:43:06.707Z,102982.01
2019-02-22T15:45:33.616Z,102987.31
2019-02-22T15:48:00.576Z,102990.37
2019-02-22T15:50:27.541Z,102986.84
2019-02-22T15:52:54.691Z,102986.41
2019-02-22T15:55:21.613Z,102992.37
2019-02-22T15:57:48.574Z,102990.70
2019-02-22T16:00:18.896Z,102987.78
2019-02-22T16:02:45.830Z,102996.04
2019-02-22T16:05:32.411Z,102998.95
2019-02-22T16:07:59.546Z,103012.44
2019-02-22T16:10:26.474Z,103014.14
2019-02-22T16:12:53.435Z,103017.99
2019-02-22T16:15:20.408Z,103018.31
2019-02-22T16:17:47.331Z,103018.67
2019-02-22T16:20:14.371Z,103001.97
2019-02-22T16:22:41.314Z,103024.77
2019-02-22T16:25:18.608Z,103026.87
2019-02-22T16:27:37.144Z,103026.30
2019-02-22T16:30:07.344Z,103031.05
2019-02-22T16:32:34.253Z,103027.56
2019-02-22T16:35:01.199Z,103032.50
2019-02-22T16:37:28.133Z,103035.59
2019-02-22T16:39:55.079Z,103042.48
2019-02-22T16:42:21.998Z,103042.39
2019-02-22T16:44:48.951Z,103052.02
2019-02-22T16:47:15.860Z,103058.22
2019-02-22T16:49:42.810Z,103054.25
2019-02-22T16:52:09.724Z,103052.81
2019-02-22T16:54:36.656Z,103055.58
2019-02-22T16:57:03.602Z,103058.84
2019-02-22T16:59:30.551Z,103068.91
2019-02-22T17:01:57.454Z,103081.52
2019-02-22T17:04:24.403Z,103074.05
2019-02-22T17:06:51.330Z,103075.40
2019-02-22T17:09:18.329Z,103082.27
2019-02-22T17:11:45.216Z,103081.67
2019-02-22T17:14:12.176Z,103076.72
2019-02-22T17:16:45.855Z,103078.40
2019-02-22T17:19:08.223Z,103076.54
2019-02-22T17:21:35.220Z,103078.33
2019-02-22T17:24:02.188Z,103078.72
2019-02-22T17:26:29.139Z,103074.90
2019-02-22T17:28:56.097Z,103076.42
2019-02-22T17:31:23.083Z,103085.93
2019-02-22T17:33:49.980Z,103085.88
2019-02-22T17:36:26.296Z,103099.73
2019-02-22T17:38:45.807Z,103106.91
2019-02-22T17:41:12.795Z,103109.38
2019-02-22T17:43:39.715Z,103103.86
2019-02-22T17:46:06.654Z,103102.30
2019-02-22T17:48:33.591Z,103107.95
2019-02-22T17:51:01.108Z,103104.86
2019-02-22T17:53:28.025Z,103102.91
2019-02-22T17:55:54.995Z,103100.23
2019-02-22T17:58:24.712Z,103105.47
2019-02-22T18:00:50.906Z,103112.24
2019-02-22T18:03:17.832Z,103122.59
2019-02-22T18:05:44.801Z,103124.33
2019-02-22T18:08:11.709Z,103118.73
2019-02-22T18:10:38.668Z,103128.83
2019-02-22T18:13:05.581Z,103124.08
2019-02-22T18:15:32.534Z,103130.67
2019-02-22T18:17:59.454Z,103129.23
2019-02-22T18:20:26.420Z,103135.45
2019-02-22T18:22:53.394Z,103132.56
2019-02-22T18:25:20.407Z,103133.88
2019-02-22T18:27:47.314Z,103145.19
2019-02-22T18:30:14.297Z,103142.11
2019-02-22T18:32:41.212Z,103141.19
2019-02-22T18:35:08.351Z,103142.55
2019-02-22T18:37:35.266Z,103129.06
2019-02-22T18:40:02.238Z,103134.66
2019-02-22T18:42:29.180Z,103138.81
2019-02-22T18:44:56.175Z,103139.19
2019-02-22T18:47:23.119Z,103148.02
2019-02-22T18:49:50.029Z,103145.71
2019-02-22T18:52:17.004Z,103146.50
2019-02-22T18:54:46.166Z,103141.19
2019-02-22T18:57:12.801Z,103146.88
2019-02-22T18:59:39.709Z,103151.20
2019-02-22T19:02:06.654Z,103136.73
2019-02-22T19:04:33.607Z,103133.58
2019-02-22T19:07:01.014Z,103129.02
2019-02-22T19:09:27.912Z,103127.78
2019-02-22T19:11:54.846Z,103129.30
2019-02-22T19:14:21.755Z,103131.81
2019-02-22T19:16:48.691Z,103134.70
2019-02-22T19:19:15.623Z,103135.15
2019-02-22T19:21:42.561Z,103139.69
2019-02-22T19:24:09.486Z,103132.48
2019-02-22T19:26:36.460Z,103126.27
2019-02-22T19:29:03.381Z,103134.94
2019-02-22T19:31:30.349Z,103136.83
2019-02-22T19:33:57.272Z,103137.63
2019-02-22T19:36:24.241Z,103136.67
2019-02-22T19:38:51.180Z,103136.32
2019-02-22T19:41:18.203Z,103131.11
2019-02-22T19:43:45.120Z,103128.36
2019-02-22T19:46:12.443Z,103134.74
2019-02-22T19:48:39.385Z,103147.00
2019-02-22T19:51:06.350Z,103148.02
2019-02-22T19:53:33.400Z,103142.66
2019-02-22T19:56:00.386Z,103138.28
2019-02-22T19:58:27.323Z,103142.78
2019-02-22T20:00:54.244Z,103140.73
2019-02-22T20:03:21.209Z,103142.60
2019-02-22T20:05:48.150Z,103139.52
2019-02-22T20:08:15.100Z,103144.94
2019-02-22T20:10:42.011Z,103142.22
2019-02-22T20:13:09.129Z,103139.10
2019-02-22T20:15:36.326Z,103132.50
2019-02-22T20:18:05.639Z,103148.03
2019-02-22T20:20:33.391Z,103146.55
2019-02-22T20:23:00.534Z,103162.36
2019-02-22T20:25:27.654Z,103170.25
2019-02-22T20:27:54.668Z,103178.13
2019-02-22T20:30:21.964Z,103183.83
2019-02-22T20:32:49.420Z,103189.91
2019-02-22T20:35:18.039Z,103203.69
2019-02-22T20:37:52.689Z,103208.14
2019-02-22T20:40:14.125Z,103215.27
2019-02-22T20:42:41.326Z,103213.76
2019-02-22T20:45:08.508Z,103226.69
2019-02-22T20:47:35.799Z,103226.42
2019-02-22T20:50:03.429Z,103230.05
2019-02-22T20:52:30.673Z,103222.89
2019-02-22T20:54:57.670Z,103223.13
2019-02-22T20:57:24.616Z,103225.17
2019-02-22T20:59:51.538Z,103227.18
2019-02-22T21:02:18.502Z,103220.97
2019-02-22T21:04:45.414Z,103219.85
2019-02-22T21:07:12.323Z,103221.50
2019-02-22T21:09:39.295Z,103222.77
2019-02-22T21:12:06.197Z,103226.78
2019-02-22T21:14:33.159Z,103219.12
2019-02-22T21:17:00.084Z,103224.45
2019-02-22T21:19:27.059Z,103221.93
2019-02-22T21:21:53.999Z,103217.86
2019-02-22T21:24:21.115Z,103233.92
2019-02-22T21:26:48.297Z,103227.05
2019-02-22T21:29:15.321Z,103234.16
2019-02-22T21:31:43.319Z,103223.17
2019-02-22T21:34:10.297Z,103224.66
2019-02-22T21:36:37.234Z,103229.75
2019-02-22T21:39:05.213Z,103229.38
2019-02-22T21:41:32.194Z,103233.84
2019-02-22T21:43:59.168Z,103233.66
2019-02-22T21:46:28.739Z,103238.05
2019-02-22T21:48:55.414Z,103237.36
2019-02-22T21:51:22.559Z,103240.83
2019-02-22T21:53:49.644Z,103243.42
2019-02-22T21:56:16.565Z,103249.22
2019-02-22T21:58:43.608Z,103254.72
2019-02-22T22:01:10.528Z,103263.11
2019-02-22T22:03:37.503Z,103266.27
2019-02-22T22:06:04.439Z,103253.30
2019-02-22T22:08:31.510Z,103257.63
2019-02-22T22:10:58.449Z,103257.34
2019-02-22T22:13:25.400Z,103244.55
2019-02-22T22:15:52.396Z,103248.15
2019-02-22T22:18:19.533Z,103243.95
2019-02-22T22:20:46.709Z,103240.13
2019-02-22T22:23:13.621Z,103253.14
2019-02-22T22:25:40.660Z,103262.39
2019-02-22T22:28:07.587Z,103266.53
2019-02-22T22:30:34.523Z,103257.08
2019-02-22T22:33:01.432Z,103267.24
2019-02-22T22:35:28.404Z,103265.98
2019-02-22T22:37:55.322Z,103269.25
2019-02-22T22:40:22.288Z,103272.01
2019-02-22T22:42:49.204Z,103278.58
2019-02-22T22:45:16.272Z,103271.93
2019-02-22T22:47:43.209Z,103276.16
2019-02-22T22:50:10.728Z,103266.91
2019-02-22T22:52:37.666Z,103267.95
2019-02-22T22:55:04.709Z,103274.09
2019-02-22T22:57:31.618Z,103275.44
2019-02-22T22:59:58.562Z,103281.92
2019-02-22T23:02:26.100Z,103276.84
2019-02-22T23:04:53.052Z,103275.55
2019-02-22T23:07:19.976Z,103275.09
2019-02-22T23:09:46.985Z,103287.47
2019-02-22T23:12:13.893Z,103279.02
2019-02-22T23:14:40.850Z,103281.92
2019-02-22T23:17:07.800Z,103282.03
2019-02-22T23:19:34.711Z,103283.91
2019-02-22T23:22:01.673Z,103274.34
2019-02-22T23:24:28.576Z,103283.02
2019-02-22T23:26:55.526Z,103273.66
2019-02-22T23:29:22.447Z,103274.00
2019-02-22T23:31:49.393Z,103281.56
2019-02-22T23:34:16.289Z,103267.52
2019-02-22T23:36:43.227Z,103253.37
2019-02-22T23:39:10.137Z,103256.26
2019-02-22T23:41:37.114Z,103265.09
2019-02-22T23:44:04.034Z,103272.95
2019-02-22T23:46:30.967Z,103271.59
2019-02-22T23:48:57.875Z,103277.42
2019-02-22T23:51:24.835Z,103273.04
2019-02-22T23:53:51.770Z,103265.17
2019-02-22T23:56:18.716Z,103264.26
2019-02-22T23:58:45.623Z,103270.23
